sensor_id;sensor_type;location;lat;lon;timestamp;P1;durP1;ratioP1;P2;durP2;ratioP2
908;SDS011;441;51.192;6.788;2023-03-11T00:00:08;9.67;;;9.37;;
908;SDS011;441;51.192;6.788;2023-03-11T00:02:41;11.50;;;11.20;;
908;SDS011;441;51.192;6.788;2023-03-11T00:05:08;11.10;;;10.70;;
908;SDS011;441;51.192;6.788;2023-03-11T00:07:37;10.63;;;10.33;;
908;SDS011;441;51.192;6.788;2023-03-11T00:10:04;10.00;;;9.80;;
908;SDS011;441;51.192;6.788;2023-03-11T00:12:32;10.37;;;10.07;;
908;SDS011;441;51.192;6.788;2023-03-11T00:15:00;10.50;;;10.20;;
908;SDS011;441;51.192;6.788;2023-03-11T00:17:27;12.00;;;11.57;;
908;SDS011;441;51.192;6.788;2023-03-11T00:19:54;11.47;;;11.07;;
908;SDS011;441;51.192;6.788;2023-03-11T00:22:21;10.10;;;9.90;;
908;SDS011;441;51.192;6.788;2023-03-11T00:24:48;11.17;;;10.80;;
908;SDS011;441;51.192;6.788;2023-03-11T00:27:15;10.90;;;10.50;;
908;SDS011;441;51.192;6.788;2023-03-11T00:29:42;11.43;;;11.13;;
908;SDS011;441;51.192;6.788;2023-03-11T00:32:10;11.50;;;11.10;;
908;SDS011;441;51.192;6.788;2023-03-11T00:34:37;10.93;;;10.63;;
908;SDS011;441;51.192;6.788;2023-03-11T00:37:04;11.20;;;10.90;;
908;SDS011;441;51.192;6.788;2023-03-11T00:39:31;12.37;;;11.77;;
908;SDS011;441;51.192;6.788;2023-03-11T00:41:58;11.70;;;11.40;;
908;SDS011;441;51.192;6.788;2023-03-11T00:44:25;11.33;;;10.93;;
908;SDS011;441;51.192;6.788;2023-03-11T00:46:51;11.20;;;10.90;;
908;SDS011;441;51.192;6.788;2023-03-11T00:49:20;11.00;;;10.70;;
908;SDS011;441;51.192;6.788;2023-03-11T00:51:46;11.67;;;11.37;;
908;SDS011;441;51.192;6.788;2023-03-11T00:54:13;11.83;;;11.53;;
908;SDS011;441;51.192;6.788;2023-03-11T00:56:40;11.13;;;10.93;;
908;SDS011;441;51.192;6.788;2023-03-11T00:59:07;10.73;;;10.47;;
908;SDS011;441;51.192;6.788;2023-03-11T01:01:34;12.77;;;12.30;;
908;SDS011;441;51.192;6.788;2023-03-11T01:04:01;10.93;;;10.37;;
908;SDS011;441;51.192;6.788;2023-03-11T01:06:29;10.43;;;10.13;;
908;SDS011;441;51.192;6.788;2023-03-11T01:08:56;11.03;;;10.73;;
908;SDS011;441;51.192;6.788;2023-03-11T01:11:23;11.20;;;10.90;;
908;SDS011;441;51.192;6.788;2023-03-11T01:13:50;11.53;;;11.03;;
908;SDS011;441;51.192;6.788;2023-03-11T01:16:17;10.70;;;10.40;;
908;SDS011;441;51.192;6.788;2023-03-11T01:18:45;10.00;;;9.70;;
908;SDS011;441;51.192;6.788;2023-03-11T01:21:12;10.40;;;10.20;;
908;SDS011;441;51.192;6.788;2023-03-11T01:23:40;10.13;;;9.83;;
908;SDS011;441;51.192;6.788;2023-03-11T01:26:07;10.40;;;10.10;;
908;SDS011;441;51.192;6.788;2023-03-11T01:28:34;10.20;;;9.90;;
908;SDS011;441;51.192;6.788;2023-03-11T01:31:01;9.87;;;9.57;;
908;SDS011;441;51.192;6.788;2023-03-11T01:33:28;10.53;;;10.33;;
908;SDS011;441;51.192;6.788;2023-03-11T01:35:55;11.10;;;10.80;;
908;SDS011;441;51.192;6.788;2023-03-11T01:38:22;11.00;;;10.73;;
908;SDS011;441;51.192;6.788;2023-03-11T01:40:50;10.60;;;10.30;;
908;SDS011;441;51.192;6.788;2023-03-11T01:43:38;10.97;;;10.77;;
908;SDS011;441;51.192;6.788;2023-03-11T01:46:14;11.80;;;11.37;;
908;SDS011;441;51.192;6.788;2023-03-11T01:48:44;10.40;;;10.10;;
908;SDS011;441;51.192;6.788;2023-03-11T01:51:12;11.40;;;11.00;;
908;SDS011;441;51.192;6.788;2023-03-11T01:53:41;10.00;;;9.80;;
908;SDS011;441;51.192;6.788;2023-03-11T01:56:10;10.37;;;10.10;;
908;SDS011;441;51.192;6.788;2023-03-11T01:58:38;10.03;;;9.83;;
908;SDS011;441;51.192;6.788;2023-03-11T02:01:09;10.27;;;9.97;;
908;SDS011;441;51.192;6.788;2023-03-11T02:03:38;10.63;;;10.23;;
908;SDS011;441;51.192;6.788;2023-03-11T02:06:07;11.00;;;10.60;;
908;SDS011;441;51.192;6.788;2023-03-11T02:08:36;10.07;;;9.87;;
908;SDS011;441;51.192;6.788;2023-03-11T02:11:05;10.20;;;10.00;;
908;SDS011;441;51.192;6.788;2023-03-11T02:13:37;9.63;;;9.43;;
908;SDS011;441;51.192;6.788;2023-03-11T02:16:05;11.60;;;11.30;;
908;SDS011;441;51.192;6.788;2023-03-11T02:18:32;10.70;;;10.50;;
908;SDS011;441;51.192;6.788;2023-03-11T02:21:02;10.53;;;10.23;;
908;SDS011;441;51.192;6.788;2023-03-11T02:23:38;10.20;;;10.00;;
908;SDS011;441;51.192;6.788;2023-03-11T02:26:13;11.00;;;10.70;;
908;SDS011;441;51.192;6.788;2023-03-11T02:28:46;10.10;;;9.80;;
908;SDS011;441;51.192;6.788;2023-03-11T02:31:15;11.13;;;10.77;;
908;SDS011;441;51.192;6.788;2023-03-11T02:33:42;10.47;;;10.27;;
908;SDS011;441;51.192;6.788;2023-03-11T02:38:57;11.80;;;11.50;;
908;SDS011;441;51.192;6.788;2023-03-11T02:41:23;11.30;;;11.00;;
908;SDS011;441;51.192;6.788;2023-03-11T02:43:52;10.60;;;10.30;;
908;SDS011;441;51.192;6.788;2023-03-11T02:46:19;10.40;;;10.20;;
908;SDS011;441;51.192;6.788;2023-03-11T02:48:46;10.67;;;10.30;;
908;SDS011;441;51.192;6.788;2023-03-11T02:51:14;11.20;;;10.87;;
908;SDS011;441;51.192;6.788;2023-03-11T02:53:47;11.00;;;10.73;;
908;SDS011;441;51.192;6.788;2023-03-11T02:56:16;10.00;;;9.80;;
908;SDS011;441;51.192;6.788;2023-03-11T02:58:43;10.57;;;10.27;;
908;SDS011;441;51.192;6.788;2023-03-11T03:01:11;10.20;;;9.97;;
908;SDS011;441;51.192;6.788;2023-03-11T03:03:38;11.50;;;11.10;;
908;SDS011;441;51.192;6.788;2023-03-11T03:06:05;10.70;;;10.50;;
908;SDS011;441;51.192;6.788;2023-03-11T03:08:32;10.90;;;10.60;;
908;SDS011;441;51.192;6.788;2023-03-11T03:10:59;10.50;;;10.20;;
908;SDS011;441;51.192;6.788;2023-03-11T03:13:27;10.07;;;9.87;;
908;SDS011;441;51.192;6.788;2023-03-11T03:15:54;10.50;;;10.30;;
908;SDS011;441;51.192;6.788;2023-03-11T03:18:23;10.90;;;10.60;;
908;SDS011;441;51.192;6.788;2023-03-11T03:20:50;10.60;;;10.30;;
908;SDS011;441;51.192;6.788;2023-03-11T03:23:17;10.93;;;10.63;;
908;SDS011;441;51.192;6.788;2023-03-11T03:25:44;10.43;;;10.13;;
908;SDS011;441;51.192;6.788;2023-03-11T03:28:11;10.37;;;10.17;;
908;SDS011;441;51.192;6.788;2023-03-11T03:30:39;12.70;;;12.30;;
908;SDS011;441;51.192;6.788;2023-03-11T03:33:06;11.23;;;10.93;;
908;SDS011;441;51.192;6.788;2023-03-11T03:35:34;10.63;;;10.33;;
908;SDS011;441;51.192;6.788;2023-03-11T03:38:05;10.60;;;10.30;;
908;SDS011;441;51.192;6.788;2023-03-11T03:40:32;11.30;;;11.00;;
908;SDS011;441;51.192;6.788;2023-03-11T03:42:59;11.10;;;10.57;;
908;SDS011;441;51.192;6.788;2023-03-11T03:45:26;10.00;;;9.80;;
908;SDS011;441;51.192;6.788;2023-03-11T03:47:53;10.10;;;9.90;;
908;SDS011;441;51.192;6.788;2023-03-11T03:50:20;11.10;;;10.70;;
908;SDS011;441;51.192;6.788;2023-03-11T03:52:48;10.33;;;10.03;;
908;SDS011;441;51.192;6.788;2023-03-11T03:55:15;10.93;;;10.73;;
908;SDS011;441;51.192;6.788;2023-03-11T03:57:42;10.20;;;10.00;;
908;SDS011;441;51.192;6.788;2023-03-11T04:00:09;10.50;;;10.30;;
908;SDS011;441;51.192;6.788;2023-03-11T04:02:37;10.90;;;10.67;;
908;SDS011;441;51.192;6.788;2023-03-11T04:05:04;11.27;;;10.97;;
908;SDS011;441;51.192;6.788;2023-03-11T04:07:32;11.70;;;11.40;;
908;SDS011;441;51.192;6.788;2023-03-11T04:10:01;11.30;;;11.10;;
908;SDS011;441;51.192;6.788;2023-03-11T04:12:29;11.73;;;11.43;;
908;SDS011;441;51.192;6.788;2023-03-11T04:14:56;11.40;;;11.00;;
908;SDS011;441;51.192;6.788;2023-03-11T04:17:23;11.80;;;11.50;;
908;SDS011;441;51.192;6.788;2023-03-11T04:19:50;12.07;;;11.77;;
908;SDS011;441;51.192;6.788;2023-03-11T04:22:16;10.10;;;9.90;;
908;SDS011;441;51.192;6.788;2023-03-11T04:24:43;11.30;;;11.00;;
908;SDS011;441;51.192;6.788;2023-03-11T04:27:12;11.43;;;11.13;;
908;SDS011;441;51.192;6.788;2023-03-11T04:29:39;11.53;;;11.23;;
908;SDS011;441;51.192;6.788;2023-03-11T04:32:06;10.50;;;10.30;;
908;SDS011;441;51.192;6.788;2023-03-11T04:34:33;10.90;;;10.60;;
908;SDS011;441;51.192;6.788;2023-03-11T04:37:00;11.87;;;11.37;;
908;SDS011;441;51.192;6.788;2023-03-11T04:39:26;10.30;;;10.10;;
908;SDS011;441;51.192;6.788;2023-03-11T04:41:53;10.60;;;10.40;;
908;SDS011;441;51.192;6.788;2023-03-11T04:44:21;10.90;;;10.60;;
908;SDS011;441;51.192;6.788;2023-03-11T04:46:48;11.17;;;10.87;;
908;SDS011;441;51.192;6.788;2023-03-11T04:49:15;11.70;;;11.40;;
908;SDS011;441;51.192;6.788;2023-03-11T04:51:42;11.00;;;10.70;;
908;SDS011;441;51.192;6.788;2023-03-11T04:54:09;10.13;;;9.93;;
908;SDS011;441;51.192;6.788;2023-03-11T04:56:36;11.17;;;10.77;;
908;SDS011;441;51.192;6.788;2023-03-11T04:59:03;10.40;;;10.10;;
908;SDS011;441;51.192;6.788;2023-03-11T05:01:31;11.77;;;11.47;;
908;SDS011;441;51.192;6.788;2023-03-11T05:03:58;11.87;;;11.57;;
908;SDS011;441;51.192;6.788;2023-03-11T05:06:25;11.20;;;10.90;;
908;SDS011;441;51.192;6.788;2023-03-11T05:08:52;11.40;;;11.10;;
908;SDS011;441;51.192;6.788;2023-03-11T05:11:18;12.10;;;11.80;;
908;SDS011;441;51.192;6.788;2023-03-11T05:13:45;11.60;;;11.20;;
908;SDS011;441;51.192;6.788;2023-03-11T05:16:12;12.80;;;12.50;;
908;SDS011;441;51.192;6.788;2023-03-11T05:18:40;13.37;;;12.97;;
908;SDS011;441;51.192;6.788;2023-03-11T05:21:07;10.70;;;10.50;;
908;SDS011;441;51.192;6.788;2023-03-11T05:23:34;11.30;;;11.03;;
908;SDS011;441;51.192;6.788;2023-03-11T05:26:01;10.90;;;10.60;;
908;SDS011;441;51.192;6.788;2023-03-11T05:28:28;11.47;;;11.17;;
908;SDS011;441;51.192;6.788;2023-03-11T05:30:55;11.70;;;11.40;;
908;SDS011;441;51.192;6.788;2023-03-11T05:33:22;12.37;;;12.07;;
908;SDS011;441;51.192;6.788;2023-03-11T05:35:50;10.83;;;10.43;;
908;SDS011;441;51.192;6.788;2023-03-11T05:38:17;12.10;;;11.80;;
908;SDS011;441;51.192;6.788;2023-03-11T05:40:44;12.20;;;11.90;;
908;SDS011;441;51.192;6.788;2023-03-11T05:43:11;11.93;;;11.63;;
908;SDS011;441;51.192;6.788;2023-03-11T05:45:37;12.03;;;11.73;;
908;SDS011;441;51.192;6.788;2023-03-11T05:48:05;12.13;;;11.83;;
908;SDS011;441;51.192;6.788;2023-03-11T05:50:31;11.17;;;10.97;;
908;SDS011;441;51.192;6.788;2023-03-11T05:53:00;10.70;;;10.40;;
908;SDS011;441;51.192;6.788;2023-03-11T05:55:27;13.20;;;12.80;;
908;SDS011;441;51.192;6.788;2023-03-11T05:57:54;12.80;;;12.50;;
908;SDS011;441;51.192;6.788;2023-03-11T06:00:21;12.90;;;12.60;;
908;SDS011;441;51.192;6.788;2023-03-11T06:02:53;12.70;;;12.40;;
908;SDS011;441;51.192;6.788;2023-03-11T06:05:20;12.35;;;11.85;;
908;SDS011;441;51.192;6.788;2023-03-11T06:07:47;12.60;;;12.30;;
908;SDS011;441;51.192;6.788;2023-03-11T06:10:16;13.93;;;13.10;;
908;SDS011;441;51.192;6.788;2023-03-11T06:12:43;9.65;;;9.25;;
908;SDS011;441;51.192;6.788;2023-03-11T06:15:10;12.23;;;11.83;;
908;SDS011;441;51.192;6.788;2023-03-11T06:17:37;13.40;;;13.00;;
908;SDS011;441;51.192;6.788;2023-03-11T06:20:04;12.73;;;12.33;;
908;SDS011;441;51.192;6.788;2023-03-11T06:22:32;12.30;;;11.90;;
908;SDS011;441;51.192;6.788;2023-03-11T06:24:59;12.00;;;11.60;;
908;SDS011;441;51.192;6.788;2023-03-11T06:27:29;12.13;;;11.73;;
908;SDS011;441;51.192;6.788;2023-03-11T06:29:55;12.03;;;11.63;;
908;SDS011;441;51.192;6.788;2023-03-11T06:32:22;12.50;;;11.80;;
908;SDS011;441;51.192;6.788;2023-03-11T06:34:50;12.20;;;11.90;;
908;SDS011;441;51.192;6.788;2023-03-11T06:37:17;11.10;;;10.60;;
908;SDS011;441;51.192;6.788;2023-03-11T06:39:45;11.13;;;10.80;;
908;SDS011;441;51.192;6.788;2023-03-11T06:42:12;11.37;;;11.07;;
908;SDS011;441;51.192;6.788;2023-03-11T06:44:41;12.07;;;11.77;;
908;SDS011;441;51.192;6.788;2023-03-11T06:47:09;11.73;;;11.33;;
908;SDS011;441;51.192;6.788;2023-03-11T06:49:36;11.00;;;10.70;;
908;SDS011;441;51.192;6.788;2023-03-11T06:52:05;12.73;;;12.37;;
908;SDS011;441;51.192;6.788;2023-03-11T06:54:32;11.50;;;11.20;;
908;SDS011;441;51.192;6.788;2023-03-11T06:56:59;11.50;;;11.20;;
908;SDS011;441;51.192;6.788;2023-03-11T06:59:26;11.03;;;10.73;;
908;SDS011;441;51.192;6.788;2023-03-11T07:01:54;11.47;;;11.07;;
908;SDS011;441;51.192;6.788;2023-03-11T07:04:21;13.20;;;12.80;;
908;SDS011;441;51.192;6.788;2023-03-11T07:06:48;11.93;;;11.63;;
908;SDS011;441;51.192;6.788;2023-03-11T07:09:15;11.97;;;11.60;;
908;SDS011;441;51.192;6.788;2023-03-11T07:11:42;9.30;;;9.00;;
908;SDS011;441;51.192;6.788;2023-03-11T07:14:09;11.77;;;11.40;;
908;SDS011;441;51.192;6.788;2023-03-11T07:16:37;11.07;;;10.77;;
908;SDS011;441;51.192;6.788;2023-03-11T07:19:06;12.47;;;12.07;;
908;SDS011;441;51.192;6.788;2023-03-11T07:21:33;13.30;;;13.00;;
908;SDS011;441;51.192;6.788;2023-03-11T07:24:00;13.27;;;12.90;;
908;SDS011;441;51.192;6.788;2023-03-11T07:26:28;11.90;;;11.60;;
908;SDS011;441;51.192;6.788;2023-03-11T07:28:56;12.87;;;12.47;;
908;SDS011;441;51.192;6.788;2023-03-11T07:31:23;11.17;;;10.87;;
908;SDS011;441;51.192;6.788;2023-03-11T07:33:51;12.40;;;12.00;;
908;SDS011;441;51.192;6.788;2023-03-11T07:36:20;11.63;;;11.33;;
908;SDS011;441;51.192;6.788;2023-03-11T07:38:53;12.40;;;11.90;;
908;SDS011;441;51.192;6.788;2023-03-11T07:41:22;11.83;;;11.53;;
908;SDS011;441;51.192;6.788;2023-03-11T07:43:52;13.43;;;13.03;;
908;SDS011;441;51.192;6.788;2023-03-11T07:46:21;11.02;;;10.73;;
908;SDS011;441;51.192;6.788;2023-03-11T07:48:49;13.43;;;12.93;;
908;SDS011;441;51.192;6.788;2023-03-11T07:51:17;12.13;;;11.80;;
908;SDS011;441;51.192;6.788;2023-03-11T07:53:47;12.47;;;12.00;;
908;SDS011;441;51.192;6.788;2023-03-11T07:56:15;13.27;;;12.87;;
908;SDS011;441;51.192;6.788;2023-03-11T07:58:43;12.00;;;11.70;;
908;SDS011;441;51.192;6.788;2023-03-11T08:01:11;12.57;;;12.07;;
908;SDS011;441;51.192;6.788;2023-03-11T08:03:40;11.50;;;11.20;;
908;SDS011;441;51.192;6.788;2023-03-11T08:06:11;12.00;;;11.70;;
908;SDS011;441;51.192;6.788;2023-03-11T08:08:40;12.33;;;11.97;;
908;SDS011;441;51.192;6.788;2023-03-11T08:11:08;12.57;;;12.13;;
908;SDS011;441;51.192;6.788;2023-03-11T08:13:35;12.90;;;12.47;;
908;SDS011;441;51.192;6.788;2023-03-11T08:16:02;13.07;;;12.57;;
908;SDS011;441;51.192;6.788;2023-03-11T08:18:30;12.63;;;12.23;;
908;SDS011;441;51.192;6.788;2023-03-11T08:20:57;14.10;;;13.70;;
908;SDS011;441;51.192;6.788;2023-03-11T08:23:24;12.97;;;12.57;;
908;SDS011;441;51.192;6.788;2023-03-11T08:25:52;11.00;;;10.70;;
908;SDS011;441;51.192;6.788;2023-03-11T08:28:19;12.23;;;11.93;;
908;SDS011;441;51.192;6.788;2023-03-11T08:30:46;12.17;;;11.77;;
908;SDS011;441;51.192;6.788;2023-03-11T08:33:13;15.33;;;14.20;;
908;SDS011;441;51.192;6.788;2023-03-11T08:35:40;14.73;;;14.03;;
908;SDS011;441;51.192;6.788;2023-03-11T08:38:06;15.00;;;13.70;;
908;SDS011;441;51.192;6.788;2023-03-11T08:40:33;16.20;;;14.70;;
908;SDS011;441;51.192;6.788;2023-03-11T08:43:02;13.80;;;12.90;;
908;SDS011;441;51.192;6.788;2023-03-11T08:45:28;13.67;;;12.60;;
908;SDS011;441;51.192;6.788;2023-03-11T08:47:55;16.97;;;15.30;;
908;SDS011;441;51.192;6.788;2023-03-11T08:50:22;17.27;;;15.87;;
908;SDS011;441;51.192;6.788;2023-03-11T08:52:49;38.17;;;17.73;;
908;SDS011;441;51.192;6.788;2023-03-11T08:55:16;17.07;;;15.60;;
908;SDS011;441;51.192;6.788;2023-03-11T08:57:49;17.50;;;15.83;;
908;SDS011;441;51.192;6.788;2023-03-11T09:00:18;16.40;;;15.30;;
908;SDS011;441;51.192;6.788;2023-03-11T09:02:45;16.83;;;15.47;;
908;SDS011;441;51.192;6.788;2023-03-11T09:05:12;19.27;;;17.70;;
908;SDS011;441;51.192;6.788;2023-03-11T09:07:39;17.20;;;15.77;;
908;SDS011;441;51.192;6.788;2023-03-11T09:10:07;15.13;;;14.07;;
908;SDS011;441;51.192;6.788;2023-03-11T09:12:36;15.17;;;13.90;;
908;SDS011;441;51.192;6.788;2023-03-11T09:15:03;17.63;;;15.93;;
908;SDS011;441;51.192;6.788;2023-03-11T09:17:32;16.80;;;15.80;;
908;SDS011;441;51.192;6.788;2023-03-11T09:19:59;14.33;;;13.47;;
908;SDS011;441;51.192;6.788;2023-03-11T09:22:26;16.07;;;14.87;;
908;SDS011;441;51.192;6.788;2023-03-11T09:24:53;16.47;;;15.53;;
908;SDS011;441;51.192;6.788;2023-03-11T09:27:20;13.23;;;12.20;;
908;SDS011;441;51.192;6.788;2023-03-11T09:29:47;15.33;;;14.27;;
908;SDS011;441;51.192;6.788;2023-03-11T09:32:14;14.10;;;13.13;;
908;SDS011;441;51.192;6.788;2023-03-11T09:34:42;13.00;;;12.40;;
908;SDS011;441;51.192;6.788;2023-03-11T09:37:09;13.70;;;12.87;;
908;SDS011;441;51.192;6.788;2023-03-11T09:39:36;16.10;;;14.80;;
908;SDS011;441;51.192;6.788;2023-03-11T09:42:04;12.65;;;11.85;;
908;SDS011;441;51.192;6.788;2023-03-11T09:44:41;15.77;;;14.77;;
908;SDS011;441;51.192;6.788;2023-03-11T09:50:07;14.70;;;13.57;;
908;SDS011;441;51.192;6.788;2023-03-11T09:52:42;14.80;;;13.90;;
908;SDS011;441;51.192;6.788;2023-03-11T09:55:20;14.07;;;12.97;;
908;SDS011;441;51.192;6.788;2023-03-11T09:58:00;14.57;;;13.80;;
908;SDS011;441;51.192;6.788;2023-03-11T10:00:32;15.07;;;13.93;;
908;SDS011;441;51.192;6.788;2023-03-11T10:02:59;16.70;;;15.87;;
908;SDS011;441;51.192;6.788;2023-03-11T10:05:29;15.00;;;13.60;;
908;SDS011;441;51.192;6.788;2023-03-11T10:07:58;14.30;;;13.70;;
908;SDS011;441;51.192;6.788;2023-03-11T10:10:29;14.47;;;13.87;;
908;SDS011;441;51.192;6.788;2023-03-11T10:13:05;14.90;;;14.30;;
908;SDS011;441;51.192;6.788;2023-03-11T10:15:41;13.90;;;13.30;;
908;SDS011;441;51.192;6.788;2023-03-11T10:18:21;14.03;;;13.27;;
908;SDS011;441;51.192;6.788;2023-03-11T10:21:05;12.80;;;12.10;;
908;SDS011;441;51.192;6.788;2023-03-11T10:23:43;15.10;;;14.40;;
908;SDS011;441;51.192;6.788;2023-03-11T10:26:32;13.27;;;12.48;;
908;SDS011;441;51.192;6.788;2023-03-11T10:29:05;15.40;;;14.80;;
908;SDS011;441;51.192;6.788;2023-03-11T10:31:39;15.17;;;14.30;;
908;SDS011;441;51.192;6.788;2023-03-11T10:34:12;13.60;;;13.10;;
908;SDS011;441;51.192;6.788;2023-03-11T10:36:51;12.30;;;11.80;;
908;SDS011;441;51.192;6.788;2023-03-11T10:39:22;14.90;;;14.10;;
908;SDS011;441;51.192;6.788;2023-03-11T10:41:51;14.30;;;13.57;;
908;SDS011;441;51.192;6.788;2023-03-11T10:44:21;15.10;;;13.87;;
908;SDS011;441;51.192;6.788;2023-03-11T10:46:52;14.47;;;13.77;;
908;SDS011;441;51.192;6.788;2023-03-11T10:49:19;14.00;;;13.40;;
908;SDS011;441;51.192;6.788;2023-03-11T10:51:46;14.00;;;13.40;;
908;SDS011;441;51.192;6.788;2023-03-11T10:54:23;12.90;;;12.40;;
908;SDS011;441;51.192;6.788;2023-03-11T10:56:54;13.83;;;13.30;;
908;SDS011;441;51.192;6.788;2023-03-11T10:59:25;14.83;;;14.03;;
908;SDS011;441;51.192;6.788;2023-03-11T11:01:54;15.40;;;14.70;;
908;SDS011;441;51.192;6.788;2023-03-11T11:04:27;14.40;;;13.60;;
908;SDS011;441;51.192;6.788;2023-03-11T11:06:56;14.00;;;13.20;;
908;SDS011;441;51.192;6.788;2023-03-11T11:09:26;13.77;;;13.17;;
908;SDS011;441;51.192;6.788;2023-03-11T11:12:02;12.90;;;12.43;;
908;SDS011;441;51.192;6.788;2023-03-11T11:14:42;12.73;;;12.20;;
908;SDS011;441;51.192;6.788;2023-03-11T11:17:18;14.37;;;13.67;;
908;SDS011;441;51.192;6.788;2023-03-11T11:19:48;15.03;;;14.27;;
908;SDS011;441;51.192;6.788;2023-03-11T11:22:18;13.00;;;12.40;;
908;SDS011;441;51.192;6.788;2023-03-11T11:24:49;12.50;;;11.90;;
908;SDS011;441;51.192;6.788;2023-03-11T11:27:18;12.73;;;12.03;;
908;SDS011;441;51.192;6.788;2023-03-11T11:29:46;12.83;;;12.33;;
908;SDS011;441;51.192;6.788;2023-03-11T11:32:35;14.20;;;13.70;;
908;SDS011;441;51.192;6.788;2023-03-11T11:35:03;13.07;;;12.57;;
908;SDS011;441;51.192;6.788;2023-03-11T11:37:33;12.40;;;11.90;;
908;SDS011;441;51.192;6.788;2023-03-11T11:40:03;13.47;;;13.07;;
908;SDS011;441;51.192;6.788;2023-03-11T11:42:35;13.57;;;13.17;;
908;SDS011;441;51.192;6.788;2023-03-11T11:45:03;12.63;;;12.03;;
908;SDS011;441;51.192;6.788;2023-03-11T11:47:40;13.50;;;13.07;;
908;SDS011;441;51.192;6.788;2023-03-11T11:50:13;12.23;;;11.73;;
908;SDS011;441;51.192;6.788;2023-03-11T11:52:43;13.27;;;12.57;;
908;SDS011;441;51.192;6.788;2023-03-11T11:55:16;13.27;;;12.77;;
908;SDS011;441;51.192;6.788;2023-03-11T11:57:46;13.10;;;12.57;;
908;SDS011;441;51.192;6.788;2023-03-11T12:00:17;12.63;;;12.23;;
908;SDS011;441;51.192;6.788;2023-03-11T12:02:52;13.13;;;12.73;;
908;SDS011;441;51.192;6.788;2023-03-11T12:05:31;12.83;;;12.43;;
908;SDS011;441;51.192;6.788;2023-03-11T12:08:07;13.20;;;12.70;;
908;SDS011;441;51.192;6.788;2023-03-11T12:10:41;13.03;;;12.53;;
908;SDS011;441;51.192;6.788;2023-03-11T12:16:11;12.60;;;12.07;;
908;SDS011;441;51.192;6.788;2023-03-11T12:18:48;13.77;;;12.93;;
908;SDS011;441;51.192;6.788;2023-03-11T12:21:22;13.10;;;12.60;;
908;SDS011;441;51.192;6.788;2023-03-11T12:24:07;13.47;;;13.07;;
908;SDS011;441;51.192;6.788;2023-03-11T12:26:50;13.07;;;12.67;;
908;SDS011;441;51.192;6.788;2023-03-11T12:29:20;12.90;;;12.20;;
908;SDS011;441;51.192;6.788;2023-03-11T12:31:51;12.63;;;12.23;;
908;SDS011;441;51.192;6.788;2023-03-11T12:34:21;10.10;;;9.70;;
908;SDS011;441;51.192;6.788;2023-03-11T12:36:49;13.17;;;12.77;;
908;SDS011;441;51.192;6.788;2023-03-11T12:39:21;11.80;;;11.40;;
908;SDS011;441;51.192;6.788;2023-03-11T12:44:50;13.27;;;12.77;;
908;SDS011;441;51.192;6.788;2023-03-11T12:47:21;11.87;;;11.57;;
908;SDS011;441;51.192;6.788;2023-03-11T12:49:51;12.57;;;12.10;;
908;SDS011;441;51.192;6.788;2023-03-11T12:52:28;11.80;;;11.50;;
908;SDS011;441;51.192;6.788;2023-03-11T12:57:57;12.27;;;11.90;;
908;SDS011;441;51.192;6.788;2023-03-11T13:00:50;12.60;;;12.20;;
908;SDS011;441;51.192;6.788;2023-03-11T13:03:46;11.23;;;10.93;;
908;SDS011;441;51.192;6.788;2023-03-11T13:06:30;12.40;;;11.90;;
908;SDS011;441;51.192;6.788;2023-03-11T13:09:11;10.10;;;9.70;;
908;SDS011;441;51.192;6.788;2023-03-11T13:11:41;12.47;;;12.07;;
908;SDS011;441;51.192;6.788;2023-03-11T13:19:49;12.77;;;12.37;;
908;SDS011;441;51.192;6.788;2023-03-11T13:25:30;12.67;;;11.63;;
908;SDS011;441;51.192;6.788;2023-03-11T13:28:12;12.60;;;12.23;;
908;SDS011;441;51.192;6.788;2023-03-11T13:30:58;11.77;;;11.47;;
908;SDS011;441;51.192;6.788;2023-03-11T13:33:44;11.50;;;11.20;;
908;SDS011;441;51.192;6.788;2023-03-11T13:36:24;11.80;;;11.40;;
908;SDS011;441;51.192;6.788;2023-03-11T13:41:58;12.43;;;12.03;;
908;SDS011;441;51.192;6.788;2023-03-11T13:44:29;11.60;;;11.30;;
908;SDS011;441;51.192;6.788;2023-03-11T13:47:00;13.50;;;13.07;;
908;SDS011;441;51.192;6.788;2023-03-11T13:49:36;12.50;;;12.00;;
908;SDS011;441;51.192;6.788;2023-03-11T13:52:07;11.67;;;11.27;;
908;SDS011;441;51.192;6.788;2023-03-11T13:54:41;12.70;;;12.10;;
908;SDS011;441;51.192;6.788;2023-03-11T13:57:24;12.03;;;11.73;;
908;SDS011;441;51.192;6.788;2023-03-11T13:59:53;12.37;;;12.00;;
908;SDS011;441;51.192;6.788;2023-03-11T14:02:22;11.70;;;11.33;;
908;SDS011;441;51.192;6.788;2023-03-11T14:04:52;12.77;;;12.27;;
908;SDS011;441;51.192;6.788;2023-03-11T14:07:25;13.27;;;12.87;;
908;SDS011;441;51.192;6.788;2023-03-11T14:13:14;11.87;;;11.53;;
908;SDS011;441;51.192;6.788;2023-03-11T14:15:44;11.83;;;11.53;;
908;SDS011;441;51.192;6.788;2023-03-11T14:18:29;12.70;;;12.40;;
908;SDS011;441;51.192;6.788;2023-03-11T14:20:58;12.50;;;12.20;;
908;SDS011;441;51.192;6.788;2023-03-11T14:23:28;13.93;;;13.37;;
908;SDS011;441;51.192;6.788;2023-03-11T14:26:01;12.70;;;12.40;;
908;SDS011;441;51.192;6.788;2023-03-11T14:28:33;12.70;;;12.30;;
908;SDS011;441;51.192;6.788;2023-03-11T14:31:04;13.80;;;13.40;;
908;SDS011;441;51.192;6.788;2023-03-11T14:33:31;13.43;;;13.00;;
908;SDS011;441;51.192;6.788;2023-03-11T14:35:59;13.07;;;12.57;;
908;SDS011;441;51.192;6.788;2023-03-11T14:38:28;13.07;;;12.77;;
908;SDS011;441;51.192;6.788;2023-03-11T14:40:57;13.40;;;13.00;;
908;SDS011;441;51.192;6.788;2023-03-11T14:43:25;13.00;;;12.60;;
908;SDS011;441;51.192;6.788;2023-03-11T14:45:56;13.87;;;13.37;;
908;SDS011;441;51.192;6.788;2023-03-11T14:48:25;12.50;;;12.20;;
908;SDS011;441;51.192;6.788;2023-03-11T14:50:55;12.97;;;12.37;;
908;SDS011;441;51.192;6.788;2023-03-11T14:53:24;12.70;;;12.30;;
908;SDS011;441;51.192;6.788;2023-03-11T14:55:54;13.23;;;12.93;;
908;SDS011;441;51.192;6.788;2023-03-11T14:58:25;13.20;;;12.80;;
908;SDS011;441;51.192;6.788;2023-03-11T15:01:00;12.83;;;12.43;;
908;SDS011;441;51.192;6.788;2023-03-11T15:03:31;11.97;;;11.67;;
908;SDS011;441;51.192;6.788;2023-03-11T15:06:00;12.23;;;11.93;;
908;SDS011;441;51.192;6.788;2023-03-11T15:08:30;13.10;;;12.53;;
908;SDS011;441;51.192;6.788;2023-03-11T15:11:05;13.37;;;12.97;;
908;SDS011;441;51.192;6.788;2023-03-11T15:13:48;13.83;;;13.43;;
908;SDS011;441;51.192;6.788;2023-03-11T15:16:29;13.33;;;12.93;;
908;SDS011;441;51.192;6.788;2023-03-11T15:18:58;14.73;;;14.33;;
908;SDS011;441;51.192;6.788;2023-03-11T15:21:26;13.07;;;12.77;;
908;SDS011;441;51.192;6.788;2023-03-11T15:23:57;14.17;;;13.77;;
908;SDS011;441;51.192;6.788;2023-03-11T15:26:27;13.77;;;13.37;;
908;SDS011;441;51.192;6.788;2023-03-11T15:28:57;14.10;;;13.70;;
908;SDS011;441;51.192;6.788;2023-03-11T15:31:33;12.53;;;12.23;;
908;SDS011;441;51.192;6.788;2023-03-11T15:34:08;13.33;;;13.03;;
908;SDS011;441;51.192;6.788;2023-03-11T15:37:00;13.07;;;12.63;;
908;SDS011;441;51.192;6.788;2023-03-11T15:39:43;13.63;;;13.33;;
908;SDS011;441;51.192;6.788;2023-03-11T15:42:17;12.87;;;12.50;;
908;SDS011;441;51.192;6.788;2023-03-11T15:44:59;14.27;;;13.67;;
908;SDS011;441;51.192;6.788;2023-03-11T15:47:37;13.40;;;12.90;;
908;SDS011;441;51.192;6.788;2023-03-11T15:50:19;15.20;;;14.80;;
908;SDS011;441;51.192;6.788;2023-03-11T15:52:48;14.00;;;13.60;;
908;SDS011;441;51.192;6.788;2023-03-11T15:55:15;13.57;;;13.27;;
908;SDS011;441;51.192;6.788;2023-03-11T15:57:44;14.43;;;14.03;;
908;SDS011;441;51.192;6.788;2023-03-11T16:00:15;13.20;;;12.90;;
908;SDS011;441;51.192;6.788;2023-03-11T16:02:47;14.20;;;13.70;;